sensor_id;sensor_type;location;lat;lon;timestamp;P1;durP1;ratioP1;P2;durP2;ratioP2
55015;SDS011;40919;43.236;21.590;2022-12-29T00:00:52;82.78;;;49.55;;
55015;SDS011;40919;43.236;21.590;2022-12-29T00:03:18;74.00;;;47.20;;
55015;SDS011;40919;43.236;21.590;2022-12-29T00:05:44;89.28;;;53.42;;
55015;SDS011;40919;43.236;21.590;2022-12-29T00:08:10;80.55;;;49.15;;
55015;SDS011;40919;43.236;21.590;2022-12-29T00:10:36;100.43;;;61.78;;
55015;SDS011;40919;43.236;21.590;2022-12-29T00:13:02;99.93;;;58.03;;
55015;SDS011;40919;43.236;21.590;2022-12-29T00:15:47;83.35;;;51.40;;
55015;SDS011;40919;43.236;21.590;2022-12-29T00:18:13;75.85;;;47.08;;
55015;SDS011;40919;43.236;21.590;2022-12-29T00:20:39;83.05;;;51.38;;
55015;SDS011;40919;43.236;21.590;2022-12-29T00:23:24;84.18;;;51.92;;
55015;SDS011;40919;43.236;21.590;2022-12-29T00:26:11;88.68;;;54.35;;
55015;SDS011;40919;43.236;21.590;2022-12-29T00:28:57;76.50;;;47.53;;
55015;SDS011;40919;43.236;21.590;2022-12-29T00:31:41;99.45;;;58.95;;
55015;SDS011;40919;43.236;21.590;2022-12-29T00:34:26;155.13;;;79.03;;
55015;SDS011;40919;43.236;21.590;2022-12-29T00:37:11;160.35;;;85.03;;
55015;SDS011;40919;43.236;21.590;2022-12-29T00:39:37;140.48;;;79.82;;
55015;SDS011;40919;43.236;21.590;2022-12-29T00:42:21;140.63;;;84.40;;
55015;SDS011;40919;43.236;21.590;2022-12-29T00:45:06;163.57;;;89.35;;
55015;SDS011;40919;43.236;21.590;2022-12-29T00:47:32;159.55;;;92.90;;
55015;SDS011;40919;43.236;21.590;2022-12-29T00:49:58;133.93;;;80.93;;
55015;SDS011;40919;43.236;21.590;2022-12-29T00:52:24;121.80;;;73.28;;
55015;SDS011;40919;43.236;21.590;2022-12-29T00:54:50;105.25;;;64.20;;
55015;SDS011;40919;43.236;21.590;2022-12-29T00:57:16;144.07;;;81.68;;
55015;SDS011;40919;43.236;21.590;2022-12-29T00:59:43;149.23;;;82.15;;
55015;SDS011;40919;43.236;21.590;2022-12-29T01:02:10;159.32;;;84.40;;
55015;SDS011;40919;43.236;21.590;2022-12-29T01:04:36;153.68;;;80.13;;
55015;SDS011;40919;43.236;21.590;2022-12-29T01:07:03;87.07;;;55.38;;
55015;SDS011;40919;43.236;21.590;2022-12-29T01:09:29;74.05;;;47.90;;
55015;SDS011;40919;43.236;21.590;2022-12-29T01:12:13;75.13;;;44.67;;
55015;SDS011;40919;43.236;21.590;2022-12-29T01:14:40;86.03;;;50.85;;
55015;SDS011;40919;43.236;21.590;2022-12-29T01:17:06;85.90;;;50.15;;
55015;SDS011;40919;43.236;21.590;2022-12-29T01:19:31;87.68;;;50.60;;
55015;SDS011;40919;43.236;21.590;2022-12-29T01:21:58;87.38;;;48.90;;
55015;SDS011;40919;43.236;21.590;2022-12-29T01:24:24;68.22;;;40.42;;
55015;SDS011;40919;43.236;21.590;2022-12-29T01:26:51;61.90;;;35.63;;
55015;SDS011;40919;43.236;21.590;2022-12-29T01:29:17;65.30;;;39.25;;
55015;SDS011;40919;43.236;21.590;2022-12-29T01:31:43;66.60;;;38.30;;
55015;SDS011;40919;43.236;21.590;2022-12-29T01:34:09;59.92;;;36.05;;
55015;SDS011;40919;43.236;21.590;2022-12-29T01:36:35;68.35;;;39.63;;
55015;SDS011;40919;43.236;21.590;2022-12-29T01:39:01;68.38;;;43.58;;
55015;SDS011;40919;43.236;21.590;2022-12-29T01:41:27;52.28;;;33.22;;
55015;SDS011;40919;43.236;21.590;2022-12-29T01:43:57;59.33;;;40.65;;
55015;SDS011;40919;43.236;21.590;2022-12-29T01:46:38;88.47;;;53.15;;
55015;SDS011;40919;43.236;21.590;2022-12-29T01:51:45;73.78;;;47.63;;
55015;SDS011;40919;43.236;21.590;2022-12-29T01:54:28;54.75;;;35.33;;
55015;SDS011;40919;43.236;21.590;2022-12-29T01:57:01;53.58;;;35.13;;
55015;SDS011;40919;43.236;21.590;2022-12-29T01:59:31;48.00;;;30.73;;
55015;SDS011;40919;43.236;21.590;2022-12-29T02:02:00;48.60;;;32.25;;
55015;SDS011;40919;43.236;21.590;2022-12-29T02:04:27;48.17;;;30.35;;
55015;SDS011;40919;43.236;21.590;2022-12-29T02:06:58;41.53;;;27.80;;
55015;SDS011;40919;43.236;21.590;2022-12-29T02:09:27;48.42;;;29.27;;
55015;SDS011;40919;43.236;21.590;2022-12-29T02:11:54;50.15;;;31.55;;
55015;SDS011;40919;43.236;21.590;2022-12-29T02:14:21;52.42;;;31.35;;
55015;SDS011;40919;43.236;21.590;2022-12-29T02:17:04;56.35;;;34.65;;
55015;SDS011;40919;43.236;21.590;2022-12-29T02:28:27;58.65;;;31.83;;
55015;SDS011;40919;43.236;21.590;2022-12-29T02:39:35;103.80;;;60.35;;
55015;SDS011;40919;43.236;21.590;2022-12-29T02:50:17;93.80;;;57.88;;
55015;SDS011;40919;43.236;21.590;2022-12-29T02:52:52;99.55;;;56.20;;
55015;SDS011;40919;43.236;21.590;2022-12-29T02:55:23;86.57;;;51.65;;
55015;SDS011;40919;43.236;21.590;2022-12-29T02:57:49;70.63;;;46.95;;
55015;SDS011;40919;43.236;21.590;2022-12-29T03:00:30;49.58;;;33.22;;
55015;SDS011;40919;43.236;21.590;2022-12-29T03:11:36;53.70;;;31.58;;
55015;SDS011;40919;43.236;21.590;2022-12-29T03:17:35;54.67;;;33.88;;
55015;SDS011;40919;43.236;21.590;2022-12-29T03:23:30;46.85;;;29.63;;
55015;SDS011;40919;43.236;21.590;2022-12-29T03:26:16;49.63;;;29.45;;
55015;SDS011;40919;43.236;21.590;2022-12-29T03:29:18;43.25;;;30.27;;
55015;SDS011;40919;43.236;21.590;2022-12-29T03:32:04;39.53;;;25.85;;
55015;SDS011;40919;43.236;21.590;2022-12-29T03:34:43;36.45;;;24.58;;
55015;SDS011;40919;43.236;21.590;2022-12-29T03:40:20;36.47;;;24.70;;
55015;SDS011;40919;43.236;21.590;2022-12-29T03:43:18;35.33;;;23.98;;
55015;SDS011;40919;43.236;21.590;2022-12-29T03:46:03;46.40;;;28.17;;
55015;SDS011;40919;43.236;21.590;2022-12-29T03:48:29;38.60;;;26.45;;
55015;SDS011;40919;43.236;21.590;2022-12-29T03:50:55;37.55;;;23.42;;
55015;SDS011;40919;43.236;21.590;2022-12-29T03:53:21;39.40;;;24.23;;
55015;SDS011;40919;43.236;21.590;2022-12-29T03:55:48;54.08;;;30.73;;
55015;SDS011;40919;43.236;21.590;2022-12-29T03:58:14;55.90;;;30.20;;
55015;SDS011;40919;43.236;21.590;2022-12-29T04:00:42;34.20;;;24.92;;
55015;SDS011;40919;43.236;21.590;2022-12-29T04:03:09;38.42;;;25.92;;
55015;SDS011;40919;43.236;21.590;2022-12-29T04:05:36;37.85;;;24.50;;
55015;SDS011;40919;43.236;21.590;2022-12-29T04:08:03;45.22;;;28.35;;
55015;SDS011;40919;43.236;21.590;2022-12-29T04:10:29;40.72;;;26.50;;
55015;SDS011;40919;43.236;21.590;2022-12-29T04:12:55;48.67;;;28.65;;
55015;SDS011;40919;43.236;21.590;2022-12-29T04:15:21;51.78;;;32.30;;
55015;SDS011;40919;43.236;21.590;2022-12-29T04:17:49;51.92;;;31.65;;
55015;SDS011;40919;43.236;21.590;2022-12-29T04:20:15;62.95;;;38.78;;
55015;SDS011;40919;43.236;21.590;2022-12-29T04:23:10;72.05;;;41.22;;
55015;SDS011;40919;43.236;21.590;2022-12-29T04:25:40;68.45;;;38.53;;
55015;SDS011;40919;43.236;21.590;2022-12-29T04:28:05;64.38;;;40.05;;
55015;SDS011;40919;43.236;21.590;2022-12-29T04:30:32;63.65;;;40.42;;
55015;SDS011;40919;43.236;21.590;2022-12-29T04:32:58;71.10;;;43.25;;
55015;SDS011;40919;43.236;21.590;2022-12-29T04:35:24;67.97;;;43.58;;
55015;SDS011;40919;43.236;21.590;2022-12-29T04:37:50;67.43;;;43.60;;
55015;SDS011;40919;43.236;21.590;2022-12-29T04:40:16;61.83;;;40.33;;
55015;SDS011;40919;43.236;21.590;2022-12-29T04:42:42;58.50;;;34.83;;
55015;SDS011;40919;43.236;21.590;2022-12-29T04:45:08;56.65;;;35.08;;
55015;SDS011;40919;43.236;21.590;2022-12-29T04:47:34;49.00;;;30.55;;
55015;SDS011;40919;43.236;21.590;2022-12-29T04:50:00;61.78;;;35.78;;
55015;SDS011;40919;43.236;21.590;2022-12-29T04:52:26;51.78;;;33.88;;
55015;SDS011;40919;43.236;21.590;2022-12-29T04:54:52;53.97;;;33.17;;
55015;SDS011;40919;43.236;21.590;2022-12-29T04:57:18;48.83;;;30.15;;
55015;SDS011;40919;43.236;21.590;2022-12-29T04:59:44;48.20;;;30.77;;
55015;SDS011;40919;43.236;21.590;2022-12-29T05:02:13;44.60;;;27.92;;
55015;SDS011;40919;43.236;21.590;2022-12-29T05:04:39;52.22;;;29.70;;
55015;SDS011;40919;43.236;21.590;2022-12-29T05:07:05;68.55;;;38.30;;
55015;SDS011;40919;43.236;21.590;2022-12-29T05:09:32;66.97;;;39.47;;
55015;SDS011;40919;43.236;21.590;2022-12-29T05:11:58;56.22;;;36.72;;
55015;SDS011;40919;43.236;21.590;2022-12-29T05:14:25;51.33;;;31.55;;
55015;SDS011;40919;43.236;21.590;2022-12-29T05:19:55;66.97;;;38.95;;
55015;SDS011;40919;43.236;21.590;2022-12-29T05:22:22;81.10;;;45.97;;
55015;SDS011;40919;43.236;21.590;2022-12-29T05:24:48;76.95;;;43.88;;
55015;SDS011;40919;43.236;21.590;2022-12-29T05:27:14;118.70;;;58.30;;
55015;SDS011;40919;43.236;21.590;2022-12-29T05:29:41;104.07;;;56.58;;
55015;SDS011;40919;43.236;21.590;2022-12-29T05:32:07;82.13;;;47.35;;
55015;SDS011;40919;43.236;21.590;2022-12-29T05:34:33;80.40;;;48.33;;
55015;SDS011;40919;43.236;21.590;2022-12-29T05:37:00;79.13;;;44.47;;
55015;SDS011;40919;43.236;21.590;2022-12-29T05:39:27;71.13;;;46.10;;
55015;SDS011;40919;43.236;21.590;2022-12-29T05:41:54;71.28;;;44.92;;
55015;SDS011;40919;43.236;21.590;2022-12-29T05:44:21;79.15;;;49.90;;
55015;SDS011;40919;43.236;21.590;2022-12-29T05:46:48;78.07;;;47.13;;
55015;SDS011;40919;43.236;21.590;2022-12-29T05:49:14;75.25;;;45.17;;
55015;SDS011;40919;43.236;21.590;2022-12-29T05:54:44;76.78;;;49.72;;
55015;SDS011;40919;43.236;21.590;2022-12-29T05:57:10;88.38;;;56.13;;
55015;SDS011;40919;43.236;21.590;2022-12-29T05:59:37;116.38;;;64.53;;
55015;SDS011;40919;43.236;21.590;2022-12-29T06:02:04;113.30;;;68.35;;
55015;SDS011;40919;43.236;21.590;2022-12-29T06:04:41;113.85;;;68.95;;
55015;SDS011;40919;43.236;21.590;2022-12-29T06:07:07;114.80;;;60.90;;
55015;SDS011;40919;43.236;21.590;2022-12-29T06:09:52;108.43;;;62.13;;
55015;SDS011;40919;43.236;21.590;2022-12-29T06:12:32;116.80;;;65.55;;
55015;SDS011;40919;43.236;21.590;2022-12-29T06:15:01;130.88;;;70.10;;
55015;SDS011;40919;43.236;21.590;2022-12-29T06:17:27;104.18;;;61.72;;
55015;SDS011;40919;43.236;21.590;2022-12-29T06:20:23;92.13;;;50.75;;
55015;SDS011;40919;43.236;21.590;2022-12-29T06:23:21;97.07;;;57.75;;
55015;SDS011;40919;43.236;21.590;2022-12-29T06:29:49;129.38;;;76.50;;
55015;SDS011;40919;43.236;21.590;2022-12-29T06:33:10;148.30;;;81.47;;
55015;SDS011;40919;43.236;21.590;2022-12-29T06:36:27;142.65;;;72.68;;
55015;SDS011;40919;43.236;21.590;2022-12-29T06:39:04;153.93;;;84.57;;
55015;SDS011;40919;43.236;21.590;2022-12-29T06:41:52;133.90;;;70.95;;
55015;SDS011;40919;43.236;21.590;2022-12-29T06:44:26;109.60;;;60.83;;
55015;SDS011;40919;43.236;21.590;2022-12-29T06:47:42;159.95;;;84.22;;
55015;SDS011;40919;43.236;21.590;2022-12-29T06:50:48;141.32;;;81.82;;
55015;SDS011;40919;43.236;21.590;2022-12-29T06:53:49;124.03;;;70.90;;
55015;SDS011;40919;43.236;21.590;2022-12-29T06:56:28;120.40;;;64.03;;
55015;SDS011;40919;43.236;21.590;2022-12-29T06:59:21;121.20;;;67.85;;
55015;SDS011;40919;43.236;21.590;2022-12-29T07:02:00;116.30;;;66.40;;
55015;SDS011;40919;43.236;21.590;2022-12-29T07:05:04;120.45;;;68.53;;
55015;SDS011;40919;43.236;21.590;2022-12-29T07:07:50;161.48;;;87.63;;
55015;SDS011;40919;43.236;21.590;2022-12-29T07:10:46;123.25;;;76.85;;
55015;SDS011;40919;43.236;21.590;2022-12-29T07:13:41;110.63;;;67.80;;
55015;SDS011;40919;43.236;21.590;2022-12-29T07:16:55;115.28;;;68.35;;
55015;SDS011;40919;43.236;21.590;2022-12-29T07:19:55;153.90;;;96.15;;
55015;SDS011;40919;43.236;21.590;2022-12-29T07:23:25;121.22;;;74.15;;
55015;SDS011;40919;43.236;21.590;2022-12-29T07:30:03;133.60;;;84.25;;
55015;SDS011;40919;43.236;21.590;2022-12-29T07:33:04;142.45;;;90.07;;
55015;SDS011;40919;43.236;21.590;2022-12-29T07:35:46;119.90;;;72.32;;
55015;SDS011;40919;43.236;21.590;2022-12-29T07:38:17;112.50;;;69.72;;
55015;SDS011;40919;43.236;21.590;2022-12-29T07:41:47;78.35;;;50.25;;
55015;SDS011;40919;43.236;21.590;2022-12-29T07:44:30;90.30;;;58.97;;
55015;SDS011;40919;43.236;21.590;2022-12-29T07:47:37;70.03;;;49.95;;
55015;SDS011;40919;43.236;21.590;2022-12-29T07:50:29;84.13;;;53.40;;
55015;SDS011;40919;43.236;21.590;2022-12-29T07:52:56;106.10;;;64.72;;
55015;SDS011;40919;43.236;21.590;2022-12-29T07:55:23;91.88;;;62.15;;
55015;SDS011;40919;43.236;21.590;2022-12-29T07:57:52;103.45;;;68.03;;
55015;SDS011;40919;43.236;21.590;2022-12-29T08:00:29;69.30;;;48.28;;
55015;SDS011;40919;43.236;21.590;2022-12-29T08:08:44;75.72;;;50.45;;
55015;SDS011;40919;43.236;21.590;2022-12-29T08:11:16;76.63;;;48.67;;
55015;SDS011;40919;43.236;21.590;2022-12-29T08:13:43;76.68;;;52.03;;
55015;SDS011;40919;43.236;21.590;2022-12-29T08:16:09;73.63;;;49.17;;
55015;SDS011;40919;43.236;21.590;2022-12-29T08:18:36;78.20;;;50.10;;
55015;SDS011;40919;43.236;21.590;2022-12-29T08:21:03;79.35;;;53.83;;
55015;SDS011;40919;43.236;21.590;2022-12-29T08:23:29;88.07;;;59.03;;
55015;SDS011;40919;43.236;21.590;2022-12-29T08:26:04;90.35;;;62.50;;
55015;SDS011;40919;43.236;21.590;2022-12-29T08:28:31;92.82;;;59.50;;
55015;SDS011;40919;43.236;21.590;2022-12-29T08:30:58;91.22;;;58.03;;
55015;SDS011;40919;43.236;21.590;2022-12-29T08:33:25;74.22;;;52.78;;
55015;SDS011;40919;43.236;21.590;2022-12-29T08:35:51;67.75;;;46.03;;
55015;SDS011;40919;43.236;21.590;2022-12-29T08:38:17;68.07;;;45.28;;
55015;SDS011;40919;43.236;21.590;2022-12-29T08:40:43;67.00;;;43.88;;
55015;SDS011;40919;43.236;21.590;2022-12-29T08:43:09;74.63;;;47.45;;
55015;SDS011;40919;43.236;21.590;2022-12-29T08:45:35;67.57;;;49.35;;
55015;SDS011;40919;43.236;21.590;2022-12-29T08:48:00;69.90;;;48.03;;
55015;SDS011;40919;43.236;21.590;2022-12-29T08:50:26;89.00;;;57.15;;
55015;SDS011;40919;43.236;21.590;2022-12-29T08:52:52;96.65;;;63.20;;
55015;SDS011;40919;43.236;21.590;2022-12-29T08:55:18;89.60;;;62.17;;
55015;SDS011;40919;43.236;21.590;2022-12-29T08:57:44;87.78;;;55.70;;
55015;SDS011;40919;43.236;21.590;2022-12-29T09:00:10;75.80;;;51.17;;
55015;SDS011;40919;43.236;21.590;2022-12-29T09:02:36;62.33;;;45.22;;
55015;SDS011;40919;43.236;21.590;2022-12-29T09:05:02;69.15;;;46.33;;
55015;SDS011;40919;43.236;21.590;2022-12-29T09:07:28;63.05;;;43.80;;
55015;SDS011;40919;43.236;21.590;2022-12-29T09:09:53;80.00;;;50.28;;
55015;SDS011;40919;43.236;21.590;2022-12-29T09:12:19;58.53;;;42.40;;
55015;SDS011;40919;43.236;21.590;2022-12-29T09:14:45;62.42;;;38.83;;
55015;SDS011;40919;43.236;21.590;2022-12-29T09:17:11;68.82;;;46.63;;
55015;SDS011;40919;43.236;21.590;2022-12-29T09:19:56;63.17;;;42.25;;
55015;SDS011;40919;43.236;21.590;2022-12-29T09:22:22;50.55;;;34.60;;
55015;SDS011;40919;43.236;21.590;2022-12-29T09:24:48;60.83;;;40.65;;
55015;SDS011;40919;43.236;21.590;2022-12-29T09:27:13;68.95;;;44.25;;
55015;SDS011;40919;43.236;21.590;2022-12-29T09:29:39;67.22;;;42.65;;
55015;SDS011;40919;43.236;21.590;2022-12-29T09:32:05;68.55;;;45.92;;
55015;SDS011;40919;43.236;21.590;2022-12-29T09:34:32;62.15;;;43.75;;
55015;SDS011;40919;43.236;21.590;2022-12-29T09:36:58;58.38;;;41.70;;
55015;SDS011;40919;43.236;21.590;2022-12-29T09:39:23;68.20;;;47.17;;
55015;SDS011;40919;43.236;21.590;2022-12-29T09:41:52;63.63;;;37.83;;
55015;SDS011;40919;43.236;21.590;2022-12-29T09:47:12;48.35;;;32.42;;
55015;SDS011;40919;43.236;21.590;2022-12-29T09:50:01;48.65;;;35.13;;
55015;SDS011;40919;43.236;21.590;2022-12-29T09:52:42;66.47;;;41.47;;
55015;SDS011;40919;43.236;21.590;2022-12-29T10:00:09;45.25;;;29.95;;
55015;SDS011;40919;43.236;21.590;2022-12-29T10:02:38;36.97;;;25.10;;
55015;SDS011;40919;43.236;21.590;2022-12-29T10:05:42;50.42;;;31.88;;
55015;SDS011;40919;43.236;21.590;2022-12-29T10:10:46;42.53;;;28.63;;
55015;SDS011;40919;43.236;21.590;2022-12-29T10:24:10;37.20;;;24.15;;
55015;SDS011;40919;43.236;21.590;2022-12-29T10:26:39;30.27;;;20.23;;
55015;SDS011;40919;43.236;21.590;2022-12-29T10:29:17;37.38;;;22.08;;
55015;SDS011;40919;43.236;21.590;2022-12-29T10:34:45;37.88;;;26.27;;
55015;SDS011;40919;43.236;21.590;2022-12-29T10:37:38;34.55;;;21.40;;
55015;SDS011;40919;43.236;21.590;2022-12-29T10:40:17;66.78;;;56.60;;
55015;SDS011;40919;43.236;21.590;2022-12-29T10:42:51;45.80;;;34.72;;
55015;SDS011;40919;43.236;21.590;2022-12-29T10:45:19;76.43;;;47.83;;
55015;SDS011;40919;43.236;21.590;2022-12-29T10:50:28;122.38;;;87.85;;
55015;SDS011;40919;43.236;21.590;2022-12-29T10:52:55;82.20;;;69.50;;
55015;SDS011;40919;43.236;21.590;2022-12-29T10:55:25;64.15;;;46.58;;
55015;SDS011;40919;43.236;21.590;2022-12-29T10:57:55;44.78;;;31.08;;
55015;SDS011;40919;43.236;21.590;2022-12-29T11:00:25;46.53;;;29.80;;
55015;SDS011;40919;43.236;21.590;2022-12-29T11:08:35;39.50;;;24.70;;
55015;SDS011;40919;43.236;21.590;2022-12-29T11:11:04;34.63;;;21.92;;
55015;SDS011;40919;43.236;21.590;2022-12-29T11:13:31;29.50;;;19.80;;
55015;SDS011;40919;43.236;21.590;2022-12-29T11:15:57;33.30;;;21.90;;
55015;SDS011;40919;43.236;21.590;2022-12-29T11:18:26;28.42;;;17.30;;
55015;SDS011;40919;43.236;21.590;2022-12-29T11:20:59;35.92;;;22.98;;
55015;SDS011;40919;43.236;21.590;2022-12-29T11:23:27;32.03;;;23.27;;
55015;SDS011;40919;43.236;21.590;2022-12-29T11:26:39;36.38;;;23.13;;
55015;SDS011;40919;43.236;21.590;2022-12-29T11:28:42;29.10;;;19.75;;
55015;SDS011;40919;43.236;21.590;2022-12-29T11:31:08;34.90;;;24.30;;
55015;SDS011;40919;43.236;21.590;2022-12-29T11:33:35;44.35;;;32.70;;
55015;SDS011;40919;43.236;21.590;2022-12-29T11:36:35;31.13;;;21.35;;
55015;SDS011;40919;43.236;21.590;2022-12-29T11:38:54;31.45;;;20.90;;
55015;SDS011;40919;43.236;21.590;2022-12-29T11:41:28;30.38;;;19.75;;
55015;SDS011;40919;43.236;21.590;2022-12-29T11:43:55;32.92;;;22.42;;
55015;SDS011;40919;43.236;21.590;2022-12-29T11:46:30;30.00;;;20.33;;
55015;SDS011;40919;43.236;21.590;2022-12-29T11:48:56;33.60;;;21.98;;
55015;SDS011;40919;43.236;21.590;2022-12-29T11:51:46;26.08;;;18.77;;
55015;SDS011;40919;43.236;21.590;2022-12-29T11:56:42;45.33;;;32.80;;
55015;SDS011;40919;43.236;21.590;2022-12-29T11:59:24;29.63;;;21.85;;
55015;SDS011;40919;43.236;21.590;2022-12-29T12:01:53;31.85;;;22.25;;
55015;SDS011;40919;43.236;21.590;2022-12-29T12:04:30;30.23;;;21.55;;
55015;SDS011;40919;43.236;21.590;2022-12-29T12:12:40;45.92;;;29.05;;
55015;SDS011;40919;43.236;21.590;2022-12-29T12:15:25;45.72;;;30.25;;
55015;SDS011;40919;43.236;21.590;2022-12-29T12:17:59;36.15;;;26.92;;
55015;SDS011;40919;43.236;21.590;2022-12-29T12:20:46;45.70;;;26.70;;
55015;SDS011;40919;43.236;21.590;2022-12-29T12:33:59;51.08;;;29.75;;
55015;SDS011;40919;43.236;21.590;2022-12-29T12:36:48;57.70;;;38.47;;
55015;SDS011;40919;43.236;21.590;2022-12-29T12:39:37;67.80;;;44.92;;
55015;SDS011;40919;43.236;21.590;2022-12-29T12:47:18;54.30;;;39.35;;
55015;SDS011;40919;43.236;21.590;2022-12-29T12:52:41;106.45;;;65.93;;
55015;SDS011;40919;43.236;21.590;2022-12-29T13:00:44;52.08;;;37.75;;
55015;SDS011;40919;43.236;21.590;2022-12-29T13:03:13;59.05;;;47.80;;
55015;SDS011;40919;43.236;21.590;2022-12-29T13:05:57;59.05;;;49.83;;
55015;SDS011;40919;43.236;21.590;2022-12-29T13:14:11;54.53;;;39.20;;
55015;SDS011;40919;43.236;21.590;2022-12-29T13:19:30;49.30;;;32.45;;
55015;SDS011;40919;43.236;21.590;2022-12-29T13:22:14;48.22;;;34.00;;
55015;SDS011;40919;43.236;21.590;2022-12-29T13:30:01;59.97;;;38.83;;
55015;SDS011;40919;43.236;21.590;2022-12-29T13:38:03;86.75;;;57.30;;
55015;SDS011;40919;43.236;21.590;2022-12-29T13:40:34;68.43;;;46.95;;
55015;SDS011;40919;43.236;21.590;2022-12-29T13:43:05;58.95;;;43.58;;
55015;SDS011;40919;43.236;21.590;2022-12-29T13:45:31;69.68;;;49.47;;
55015;SDS011;40919;43.236;21.590;2022-12-29T13:48:05;77.13;;;51.85;;
55015;SDS011;40919;43.236;21.590;2022-12-29T13:50:33;80.55;;;53.17;;
55015;SDS011;40919;43.236;21.590;2022-12-29T13:56:07;72.38;;;54.50;;
55015;SDS011;40919;43.236;21.590;2022-12-29T13:58:54;89.10;;;60.17;;
55015;SDS011;40919;43.236;21.590;2022-12-29T14:01:28;94.25;;;63.28;;
55015;SDS011;40919;43.236;21.590;2022-12-29T14:03:57;114.05;;;76.75;;
55015;SDS011;40919;43.236;21.590;2022-12-29T14:06:27;115.78;;;76.85;;
55015;SDS011;40919;43.236;21.590;2022-12-29T14:08:57;91.95;;;59.90;;
55015;SDS011;40919;43.236;21.590;2022-12-29T14:11:28;118.45;;;80.65;;
55015;SDS011;40919;43.236;21.590;2022-12-29T14:13:56;108.82;;;77.82;;
55015;SDS011;40919;43.236;21.590;2022-12-29T14:16:32;100.72;;;68.20;;
55015;SDS011;40919;43.236;21.590;2022-12-29T14:19:13;103.05;;;72.43;;
55015;SDS011;40919;43.236;21.590;2022-12-29T14:21:41;101.40;;;64.88;;
55015;SDS011;40919;43.236;21.590;2022-12-29T14:34:48;120.50;;;76.60;;
55015;SDS011;40919;43.236;21.590;2022-12-29T14:37:31;138.07;;;87.45;;
55015;SDS011;40919;43.236;21.590;2022-12-29T14:42:39;173.45;;;119.03;;
55015;SDS011;40919;43.236;21.590;2022-12-29T14:47:45;182.02;;;125.32;;
55015;SDS011;40919;43.236;21.590;2022-12-29T14:55:55;196.65;;;136.48;;
55015;SDS011;40919;43.236;21.590;2022-12-29T14:58:29;195.63;;;132.32;;
55015;SDS011;40919;43.236;21.590;2022-12-29T15:00:57;219.52;;;151.57;;
55015;SDS011;40919;43.236;21.590;2022-12-29T15:03:43;207.93;;;144.63;;
55015;SDS011;40919;43.236;21.590;2022-12-29T15:06:10;170.20;;;126.05;;
55015;SDS011;40919;43.236;21.590;2022-12-29T15:08:37;166.15;;;119.03;;
55015;SDS011;40919;43.236;21.590;2022-12-29T15:11:13;186.80;;;131.52;;
55015;SDS011;40919;43.236;21.590;2022-12-29T15:13:40;176.25;;;126.65;;
55015;SDS011;40919;43.236;21.590;2022-12-29T15:18:52;183.90;;;121.78;;
55015;SDS011;40919;43.236;21.590;2022-12-29T15:21:20;172.13;;;127.18;;
55015;SDS011;40919;43.236;21.590;2022-12-29T15:23:48;170.95;;;117.38;;
55015;SDS011;40919;43.236;21.590;2022-12-29T15:26:15;136.30;;;94.88;;
55015;SDS011;40919;43.236;21.590;2022-12-29T15:28:47;231.80;;;142.57;;
55015;SDS011;40919;43.236;21.590;2022-12-29T15:31:20;168.82;;;110.28;;
55015;SDS011;40919;43.236;21.590;2022-12-29T15:33:48;131.13;;;88.97;;
55015;SDS011;40919;43.236;21.590;2022-12-29T15:36:20;110.28;;;73.65;;
55015;SDS011;40919;43.236;21.590;2022-12-29T15:38:46;98.53;;;71.50;;
55015;SDS011;40919;43.236;21.590;2022-12-29T15:41:25;205.23;;;119.85;;
55015;SDS011;40919;43.236;21.590;2022-12-29T15:46:32;223.93;;;124.05;;
55015;SDS011;40919;43.236;21.590;2022-12-29T15:48:58;291.88;;;164.02;;
55015;SDS011;40919;43.236;21.590;2022-12-29T15:51:29;272.00;;;161.38;;
55015;SDS011;40919;43.236;21.590;2022-12-29T15:53:56;317.92;;;186.05;;
55015;SDS011;40919;43.236;21.590;2022-12-29T15:56:23;297.20;;;189.40;;
55015;SDS011;40919;43.236;21.590;2022-12-29T15:58:50;270.95;;;173.43;;
55015;SDS011;40919;43.236;21.590;2022-12-29T16:01:17;325.55;;;175.50;;
55015;SDS011;40919;43.236;21.590;2022-12-29T16:03:44;281.90;;;160.07;;
55015;SDS011;40919;43.236;21.590;2022-12-29T16:06:23;286.27;;;151.90;;
55015;SDS011;40919;43.236;21.590;2022-12-29T16:08:58;261.98;;;136.05;;
55015;SDS011;40919;43.236;21.590;2022-12-29T16:11:37;337.70;;;154.93;;
55015;SDS011;40919;43.236;21.590;2022-12-29T16:14:08;194.57;;;104.43;;
55015;SDS011;40919;43.236;21.590;2022-12-29T16:16:36;185.85;;;98.13;;
55015;SDS011;40919;43.236;21.590;2022-12-29T16:19:11;261.73;;;150.55;;
55015;SDS011;40919;43.236;21.590;2022-12-29T16:21:38;300.70;;;186.60;;
55015;SDS011;40919;43.236;21.590;2022-12-29T16:24:05;325.20;;;196.65;;
55015;SDS011;40919;43.236;21.590;2022-12-29T16:26:32;322.05;;;199.95;;
55015;SDS011;40919;43.236;21.590;2022-12-29T16:28:59;351.75;;;206.43;;
55015;SDS011;40919;43.236;21.590;2022-12-29T16:31:34;460.35;;;258.73;;
55015;SDS011;40919;43.236;21.590;2022-12-29T16:34:10;437.77;;;263.90;;
55015;SDS011;40919;43.236;21.590;2022-12-29T16:36:40;465.10;;;260.80;;
55015;SDS011;40919;43.236;21.590;2022-12-29T16:39:24;396.52;;;228.65;;
55015;SDS011;40919;43.236;21.590;2022-12-29T16:41:56;369.67;;;216.25;;
55015;SDS011;40919;43.236;21.590;2022-12-29T16:44:23;287.83;;;175.18;;
55015;SDS011;40919;43.236;21.590;2022-12-29T16:47:35;352.33;;;218.48;;
55015;SDS011;40919;43.236;21.590;2022-12-29T16:49:37;328.90;;;198.10;;
55015;SDS011;40919;43.236;21.590;2022-12-29T16:52:13;371.63;;;220.40;;
55015;SDS011;40919;43.236;21.590;2022-12-29T16:54:43;319.42;;;209.75;;
55015;SDS011;40919;43.236;21.590;2022-12-29T16:57:13;328.83;;;208.27;;
55015;SDS011;40919;43.236;21.590;2022-12-29T16:59:40;269.65;;;177.45;;
55015;SDS011;40919;43.236;21.590;2022-12-29T17:02:12;249.18;;;155.52;;
55015;SDS011;40919;43.236;21.590;2022-12-29T17:04:39;215.85;;;137.13;;
55015;SDS011;40919;43.236;21.590;2022-12-29T17:07:15;175.50;;;113.07;;
55015;SDS011;40919;43.236;21.590;2022-12-29T17:09:42;210.45;;;134.93;;
55015;SDS011;40919;43.236;21.590;2022-12-29T17:12:08;223.65;;;137.63;;
55015;SDS011;40919;43.236;21.590;2022-12-29T17:14:57;204.23;;;130.68;;
55015;SDS011;40919;43.236;21.590;2022-12-29T17:22:36;165.32;;;111.40;;
55015;SDS011;40919;43.236;21.590;2022-12-29T17:25:01;164.30;;;111.72;;
55015;SDS011;40919;43.236;21.590;2022-12-29T17:27:37;184.27;;;122.10;;
55015;SDS011;40919;43.236;21.590;2022-12-29T17:30:11;226.32;;;151.07;;
55015;SDS011;40919;43.236;21.590;2022-12-29T17:32:38;292.88;;;200.20;;
55015;SDS011;40919;43.236;21.590;2022-12-29T17:35:04;263.13;;;179.73;;
55015;SDS011;40919;43.236;21.590;2022-12-29T17:37:32;265.52;;;173.50;;
55015;SDS011;40919;43.236;21.590;2022-12-29T17:39:58;254.57;;;168.30;;